Airfield :
LOGIN :

Register | Disclaimer

   EN    FR    IT 

 










Legend :    VFR   Marginal VFR   IFR   Intensive IFR   Very Intensive IFR
Visi :
Ceiling :
>= 8 km
>= 3000ft
5 to 8 km
1000 to 3000 ft
1500m to 5 km
500 to 1000 ft
800 to 1500m
200 to 500 ft
< 800m
< 200 ft
Symbols :   Thunderstorms  Fog  Heavy snow  Heavy precipitations  Wind > 20 kt
SIGMETs :     Misc.  Thunderstorms  Icing  Turbulence  Mountain Waves  Volcanic Ashes






- Airport Elevation : 479 ft
- IATA code : DOL


LFRG - Deauville

CURRENT METAR :
  • 022130Z AUTO 32003KT 300V360 CAVOK 13/11 Q1014

EXPIRED METARs :
  • 022100Z AUTO 31004KT 280V340 CAVOK 14/12 Q1015
  • 022030Z AUTO 32004KT 290V350 CAVOK 15/11 Q1015
  • 022000Z AUTO VRB02KT CAVOK 16/11 Q1015 NOSIG
  • 021930Z AUTO 35004KT CAVOK 18/11 Q1015 NOSIG
  • 021900Z AUTO 33005KT 300V360 CAVOK 19/11 Q1015 NOSIG

TAF TAF LFRG
Valid from the 02 at 15:00 until the 03 at 00:00 UTC


021400Z 0215/0224 36010KT CAVOK
PROB30
TEMPO 0215/0224 5000 BR
BECMG 0218/0221 VRB05KT
ATIS : +33 2 31 65 65 36



MET'MAP, your aeronautical weather chart ! - Copyright ORBIFLY December 2007 - Disclaimer

ORBIFLY MET'MAP TEAM :

Programming & Development : Alexandra Zaïnal
Concept & original design : Baudouin d'Aumeries
Assistance for programming : Marc-Olivier Méhu
Technical & hardware support : Manuel Goepfert

Contact : metmap@orbifly.com




SOURCES & CREDITS :

   NOAA